sensor_id;sensor_type;location;lat;lon;timestamp;temperature;humidity
9410;DHT22;4744;52.576;13.568;2023-03-08T00:02:05;1.10;1.00
9410;DHT22;4744;52.576;13.568;2023-03-08T00:04:32;1.10;1.00
9410;DHT22;4744;52.576;13.568;2023-03-08T00:06:59;1.00;1.00
9410;DHT22;4744;52.576;13.568;2023-03-08T00:09:26;1.00;1.00
9410;DHT22;4744;52.576;13.568;2023-03-08T00:11:53;1.00;1.00
9410;DHT22;4744;52.576;13.568;2023-03-08T00:14:20;1.00;1.00
9410;DHT22;4744;52.576;13.568;2023-03-08T00:16:47;0.90;1.00
9410;DHT22;4744;52.576;13.568;2023-03-08T00:19:16;0.90;1.00
9410;DHT22;4744;52.576;13.568;2023-03-08T00:21:43;0.90;1.00
9410;DHT22;4744;52.576;13.568;2023-03-08T00:24:10;0.90;1.00
9410;DHT22;4744;52.576;13.568;2023-03-08T00:26:41;0.80;1.00
9410;DHT22;4744;52.576;13.568;2023-03-08T00:29:08;0.80;1.00
9410;DHT22;4744;52.576;13.568;2023-03-08T00:31:35;0.80;1.00
9410;DHT22;4744;52.576;13.568;2023-03-08T00:34:02;0.80;1.00
9410;DHT22;4744;52.576;13.568;2023-03-08T00:36:31;0.80;1.00
9410;DHT22;4744;52.576;13.568;2023-03-08T00:38:57;0.70;1.00
9410;DHT22;4744;52.576;13.568;2023-03-08T00:41:24;0.70;1.00
9410;DHT22;4744;52.576;13.568;2023-03-08T00:43:51;0.70;1.00
9410;DHT22;4744;52.576;13.568;2023-03-08T00:46:18;0.70;1.00
9410;DHT22;4744;52.576;13.568;2023-03-08T00:48:45;0.70;1.00
9410;DHT22;4744;52.576;13.568;2023-03-08T00:51:14;0.70;1.00
9410;DHT22;4744;52.576;13.568;2023-03-08T00:53:43;0.70;1.00
9410;DHT22;4744;52.576;13.568;2023-03-08T00:56:10;0.60;1.00
9410;DHT22;4744;52.576;13.568;2023-03-08T00:58:38;0.60;1.00
9410;DHT22;4744;52.576;13.568;2023-03-08T01:01:05;0.60;1.00
9410;DHT22;4744;52.576;13.568;2023-03-08T01:03:33;0.60;1.00
9410;DHT22;4744;52.576;13.568;2023-03-08T01:06:06;0.60;1.00
9410;DHT22;4744;52.576;13.568;2023-03-08T01:08:34;0.60;1.00
9410;DHT22;4744;52.576;13.568;2023-03-08T01:11:02;0.60;1.00
9410;DHT22;4744;52.576;13.568;2023-03-08T01:13:31;0.60;1.00
9410;DHT22;4744;52.576;13.568;2023-03-08T01:15:59;0.60;1.00
9410;DHT22;4744;52.576;13.568;2023-03-08T01:18:26;0.50;1.00
9410;DHT22;4744;52.576;13.568;2023-03-08T01:20:57;0.50;1.00
9410;DHT22;4744;52.576;13.568;2023-03-08T01:23:25;0.50;1.00
9410;DHT22;4744;52.576;13.568;2023-03-08T01:25:59;0.50;1.00
9410;DHT22;4744;52.576;13.568;2023-03-08T01:28:27;0.50;1.00
9410;DHT22;4744;52.576;13.568;2023-03-08T01:31:00;0.50;1.00
9410;DHT22;4744;52.576;13.568;2023-03-08T01:33:27;0.50;1.00
9410;DHT22;4744;52.576;13.568;2023-03-08T01:35:54;0.50;1.00
9410;DHT22;4744;52.576;13.568;2023-03-08T01:38:22;0.50;1.00
9410;DHT22;4744;52.576;13.568;2023-03-08T01:40:53;0.40;1.00
9410;DHT22;4744;52.576;13.568;2023-03-08T01:43:22;0.40;1.00
9410;DHT22;4744;52.576;13.568;2023-03-08T01:46:08;0.40;1.00
9410;DHT22;4744;52.576;13.568;2023-03-08T01:48:39;0.40;1.00
9410;DHT22;4744;52.576;13.568;2023-03-08T01:51:09;0.40;1.00
9410;DHT22;4744;52.576;13.568;2023-03-08T01:53:39;0.30;1.00
9410;DHT22;4744;52.576;13.568;2023-03-08T01:56:10;0.30;1.00
9410;DHT22;4744;52.576;13.568;2023-03-08T01:58:39;0.40;1.00
9410;DHT22;4744;52.576;13.568;2023-03-08T02:01:08;0.30;1.00
9410;DHT22;4744;52.576;13.568;2023-03-08T02:03:35;0.30;1.00
9410;DHT22;4744;52.576;13.568;2023-03-08T02:06:02;0.30;1.00
9410;DHT22;4744;52.576;13.568;2023-03-08T02:08:30;0.30;1.00
9410;DHT22;4744;52.576;13.568;2023-03-08T02:10:57;0.30;1.00
9410;DHT22;4744;52.576;13.568;2023-03-08T02:13:25;0.30;1.00
9410;DHT22;4744;52.576;13.568;2023-03-08T02:15:53;0.30;1.00
9410;DHT22;4744;52.576;13.568;2023-03-08T02:18:22;0.30;1.00
9410;DHT22;4744;52.576;13.568;2023-03-08T02:20:49;0.30;1.00
9410;DHT22;4744;52.576;13.568;2023-03-08T02:23:19;0.30;1.00
9410;DHT22;4744;52.576;13.568;2023-03-08T02:25:50;0.30;1.00
9410;DHT22;4744;52.576;13.568;2023-03-08T02:28:18;0.20;1.00
9410;DHT22;4744;52.576;13.568;2023-03-08T02:30:45;0.30;1.00
9410;DHT22;4744;52.576;13.568;2023-03-08T02:33:12;0.20;1.00
9410;DHT22;4744;52.576;13.568;2023-03-08T02:35:39;0.20;1.00
9410;DHT22;4744;52.576;13.568;2023-03-08T02:38:08;0.20;1.00
9410;DHT22;4744;52.576;13.568;2023-03-08T02:40:36;0.20;1.00
9410;DHT22;4744;52.576;13.568;2023-03-08T02:43:03;0.20;1.00
9410;DHT22;4744;52.576;13.568;2023-03-08T02:45:30;0.10;1.00
9410;DHT22;4744;52.576;13.568;2023-03-08T02:47:58;0.10;1.00
9410;DHT22;4744;52.576;13.568;2023-03-08T02:50:25;0.10;1.00
9410;DHT22;4744;52.576;13.568;2023-03-08T02:52:52;0.10;1.00
9410;DHT22;4744;52.576;13.568;2023-03-08T02:55:19;0.10;1.00
9410;DHT22;4744;52.576;13.568;2023-03-08T02:57:47;0.10;1.00
9410;DHT22;4744;52.576;13.568;2023-03-08T03:00:15;0.10;1.00
9410;DHT22;4744;52.576;13.568;2023-03-08T03:02:42;0.10;1.00
9410;DHT22;4744;52.576;13.568;2023-03-08T03:05:09;0.10;1.00
9410;DHT22;4744;52.576;13.568;2023-03-08T03:07:37;0.10;1.00
9410;DHT22;4744;52.576;13.568;2023-03-08T03:10:06;0.10;1.00
9410;DHT22;4744;52.576;13.568;2023-03-08T03:12:34;0.10;1.00
9410;DHT22;4744;52.576;13.568;2023-03-08T03:15:03;0.10;1.00
9410;DHT22;4744;52.576;13.568;2023-03-08T03:17:30;0.20;1.00
9410;DHT22;4744;52.576;13.568;2023-03-08T03:19:57;0.20;1.00
9410;DHT22;4744;52.576;13.568;2023-03-08T03:22:24;0.20;1.00
9410;DHT22;4744;52.576;13.568;2023-03-08T03:24:51;0.30;1.00
9410;DHT22;4744;52.576;13.568;2023-03-08T03:27:18;0.30;1.00
9410;DHT22;4744;52.576;13.568;2023-03-08T03:29:45;0.30;1.00
9410;DHT22;4744;52.576;13.568;2023-03-08T03:32:14;0.30;1.00
9410;DHT22;4744;52.576;13.568;2023-03-08T03:34:40;0.40;1.00
9410;DHT22;4744;52.576;13.568;2023-03-08T03:37:07;0.40;1.00
9410;DHT22;4744;52.576;13.568;2023-03-08T03:39:35;0.40;1.00
9410;DHT22;4744;52.576;13.568;2023-03-08T03:42:03;0.50;1.00
9410;DHT22;4744;52.576;13.568;2023-03-08T03:44:31;0.50;1.00
9410;DHT22;4744;52.576;13.568;2023-03-08T03:46:58;0.50;1.00
9410;DHT22;4744;52.576;13.568;2023-03-08T03:49:26;0.50;1.00
9410;DHT22;4744;52.576;13.568;2023-03-08T03:51:53;0.50;1.00
9410;DHT22;4744;52.576;13.568;2023-03-08T03:54:20;0.50;1.00
9410;DHT22;4744;52.576;13.568;2023-03-08T03:56:47;0.50;1.00
9410;DHT22;4744;52.576;13.568;2023-03-08T03:59:14;0.50;1.00
9410;DHT22;4744;52.576;13.568;2023-03-08T04:01:41;0.50;1.00
9410;DHT22;4744;52.576;13.568;2023-03-08T04:04:08;0.50;1.00
9410;DHT22;4744;52.576;13.568;2023-03-08T04:06:37;0.50;1.00
9410;DHT22;4744;52.576;13.568;2023-03-08T04:09:06;0.50;1.00
9410;DHT22;4744;52.576;13.568;2023-03-08T04:11:35;0.50;1.00
9410;DHT22;4744;52.576;13.568;2023-03-08T04:14:03;0.50;1.00
9410;DHT22;4744;52.576;13.568;2023-03-08T04:16:32;0.50;1.00
9410;DHT22;4744;52.576;13.568;2023-03-08T04:19:01;0.50;1.00
9410;DHT22;4744;52.576;13.568;2023-03-08T04:21:28;0.50;1.00
9410;DHT22;4744;52.576;13.568;2023-03-08T04:23:57;0.50;1.00
9410;DHT22;4744;52.576;13.568;2023-03-08T04:26:24;0.50;1.00
9410;DHT22;4744;52.576;13.568;2023-03-08T04:28:51;0.50;1.00
9410;DHT22;4744;52.576;13.568;2023-03-08T04:31:19;0.50;1.00
9410;DHT22;4744;52.576;13.568;2023-03-08T04:33:47;0.50;1.00
9410;DHT22;4744;52.576;13.568;2023-03-08T04:36:16;0.50;1.00
9410;DHT22;4744;52.576;13.568;2023-03-08T04:38:44;0.50;1.00
9410;DHT22;4744;52.576;13.568;2023-03-08T04:41:12;0.50;1.00
9410;DHT22;4744;52.576;13.568;2023-03-08T04:43:42;0.50;1.00
9410;DHT22;4744;52.576;13.568;2023-03-08T04:46:09;0.50;1.00
9410;DHT22;4744;52.576;13.568;2023-03-08T04:48:36;0.50;1.00
9410;DHT22;4744;52.576;13.568;2023-03-08T04:51:05;0.50;1.00
9410;DHT22;4744;52.576;13.568;2023-03-08T04:53:33;0.50;1.00
9410;DHT22;4744;52.576;13.568;2023-03-08T04:56:01;0.50;1.00
9410;DHT22;4744;52.576;13.568;2023-03-08T04:58:29;0.50;1.00
9410;DHT22;4744;52.576;13.568;2023-03-08T05:00:56;0.50;1.00
9410;DHT22;4744;52.576;13.568;2023-03-08T05:03:24;0.50;1.00
9410;DHT22;4744;52.576;13.568;2023-03-08T05:05:53;0.50;1.00
9410;DHT22;4744;52.576;13.568;2023-03-08T05:08:21;0.50;1.00
9410;DHT22;4744;52.576;13.568;2023-03-08T05:10:48;0.40;1.00
9410;DHT22;4744;52.576;13.568;2023-03-08T05:13:15;0.50;1.00
9410;DHT22;4744;52.576;13.568;2023-03-08T05:15:44;0.40;1.00
9410;DHT22;4744;52.576;13.568;2023-03-08T05:18:11;0.40;1.00
9410;DHT22;4744;52.576;13.568;2023-03-08T05:20:38;0.40;1.00
9410;DHT22;4744;52.576;13.568;2023-03-08T05:23:05;0.30;1.00
9410;DHT22;4744;52.576;13.568;2023-03-08T05:25:32;0.30;1.00
9410;DHT22;4744;52.576;13.568;2023-03-08T05:27:59;0.30;1.00
9410;DHT22;4744;52.576;13.568;2023-03-08T05:30:26;0.20;1.00
9410;DHT22;4744;52.576;13.568;2023-03-08T05:32:54;0.20;1.00
9410;DHT22;4744;52.576;13.568;2023-03-08T05:35:21;0.20;1.00
9410;DHT22;4744;52.576;13.568;2023-03-08T05:37:48;0.20;1.00
9410;DHT22;4744;52.576;13.568;2023-03-08T05:40:15;0.20;1.00
9410;DHT22;4744;52.576;13.568;2023-03-08T05:42:42;0.20;1.00
9410;DHT22;4744;52.576;13.568;2023-03-08T05:45:10;0.30;1.00
9410;DHT22;4744;52.576;13.568;2023-03-08T05:47:37;0.20;1.00
9410;DHT22;4744;52.576;13.568;2023-03-08T05:50:07;0.30;1.00
9410;DHT22;4744;52.576;13.568;2023-03-08T05:52:34;0.30;1.00
9410;DHT22;4744;52.576;13.568;2023-03-08T05:55:01;0.30;1.00
9410;DHT22;4744;52.576;13.568;2023-03-08T05:57:28;0.30;1.00
9410;DHT22;4744;52.576;13.568;2023-03-08T05:59:54;0.30;1.00
9410;DHT22;4744;52.576;13.568;2023-03-08T06:02:21;0.40;1.00
9410;DHT22;4744;52.576;13.568;2023-03-08T06:04:48;0.40;1.00
9410;DHT22;4744;52.576;13.568;2023-03-08T06:07:17;0.40;1.00
9410;DHT22;4744;52.576;13.568;2023-03-08T06:09:43;0.40;1.00
9410;DHT22;4744;52.576;13.568;2023-03-08T06:12:10;0.40;1.00
9410;DHT22;4744;52.576;13.568;2023-03-08T06:14:37;0.40;1.00
9410;DHT22;4744;52.576;13.568;2023-03-08T06:17:04;0.40;1.00
9410;DHT22;4744;52.576;13.568;2023-03-08T06:19:31;0.50;1.00
9410;DHT22;4744;52.576;13.568;2023-03-08T06:21:58;0.50;1.00
9410;DHT22;4744;52.576;13.568;2023-03-08T06:24:26;0.50;1.00
9410;DHT22;4744;52.576;13.568;2023-03-08T06:26:53;0.60;1.00
9410;DHT22;4744;52.576;13.568;2023-03-08T06:29:20;0.60;1.00
9410;DHT22;4744;52.576;13.568;2023-03-08T06:31:47;0.60;1.00
9410;DHT22;4744;52.576;13.568;2023-03-08T06:34:14;0.60;1.00
9410;DHT22;4744;52.576;13.568;2023-03-08T06:36:41;0.70;1.00
9410;DHT22;4744;52.576;13.568;2023-03-08T06:39:08;0.70;1.00
9410;DHT22;4744;52.576;13.568;2023-03-08T06:41:37;0.70;1.00
9410;DHT22;4744;52.576;13.568;2023-03-08T06:44:04;0.80;1.00
9410;DHT22;4744;52.576;13.568;2023-03-08T06:46:31;0.80;1.00
9410;DHT22;4744;52.576;13.568;2023-03-08T06:48:59;0.90;1.00
9410;DHT22;4744;52.576;13.568;2023-03-08T06:51:26;0.90;1.00
9410;DHT22;4744;52.576;13.568;2023-03-08T06:53:53;0.90;1.00
9410;DHT22;4744;52.576;13.568;2023-03-08T06:56:20;1.00;1.00
9410;DHT22;4744;52.576;13.568;2023-03-08T06:58:48;1.10;1.00
9410;DHT22;4744;52.576;13.568;2023-03-08T07:01:15;1.10;1.00
9410;DHT22;4744;52.576;13.568;2023-03-08T07:03:42;1.10;1.00
9410;DHT22;4744;52.576;13.568;2023-03-08T07:06:11;1.20;1.00
9410;DHT22;4744;52.576;13.568;2023-03-08T07:08:38;1.30;1.00
9410;DHT22;4744;52.576;13.568;2023-03-08T07:11:05;1.40;1.00
9410;DHT22;4744;52.576;13.568;2023-03-08T07:13:33;1.50;1.00
9410;DHT22;4744;52.576;13.568;2023-03-08T07:16:06;1.50;1.00
9410;DHT22;4744;52.576;13.568;2023-03-08T07:18:33;1.60;1.00
9410;DHT22;4744;52.576;13.568;2023-03-08T07:21:00;1.80;1.00
9410;DHT22;4744;52.576;13.568;2023-03-08T07:23:27;1.90;1.00
9410;DHT22;4744;52.576;13.568;2023-03-08T07:25:54;2.00;1.00
9410;DHT22;4744;52.576;13.568;2023-03-08T07:28:21;2.30;1.00
9410;DHT22;4744;52.576;13.568;2023-03-08T07:30:50;2.50;1.00
9410;DHT22;4744;52.576;13.568;2023-03-08T07:33:19;3.00;1.00
9410;DHT22;4744;52.576;13.568;2023-03-08T07:35:46;3.40;1.00
9410;DHT22;4744;52.576;13.568;2023-03-08T07:38:14;3.70;1.00
9410;DHT22;4744;52.576;13.568;2023-03-08T07:40:41;3.90;1.00
9410;DHT22;4744;52.576;13.568;2023-03-08T07:43:08;3.90;1.00
9410;DHT22;4744;52.576;13.568;2023-03-08T07:45:36;3.70;1.00
9410;DHT22;4744;52.576;13.568;2023-03-08T07:48:04;3.70;1.00
9410;DHT22;4744;52.576;13.568;2023-03-08T07:50:32;3.50;1.00
9410;DHT22;4744;52.576;13.568;2023-03-08T07:52:59;3.40;1.00
9410;DHT22;4744;52.576;13.568;2023-03-08T07:55:26;3.30;1.00
9410;DHT22;4744;52.576;13.568;2023-03-08T07:57:53;3.50;1.00
9410;DHT22;4744;52.576;13.568;2023-03-08T08:00:21;3.50;1.00
9410;DHT22;4744;52.576;13.568;2023-03-08T08:02:48;3.50;1.00
9410;DHT22;4744;52.576;13.568;2023-03-08T08:05:18;3.50;1.00
9410;DHT22;4744;52.576;13.568;2023-03-08T08:07:47;3.50;1.00
9410;DHT22;4744;52.576;13.568;2023-03-08T08:10:15;3.80;1.00
9410;DHT22;4744;52.576;13.568;2023-03-08T08:12:42;3.90;1.00
9410;DHT22;4744;52.576;13.568;2023-03-08T08:15:09;4.00;1.00
9410;DHT22;4744;52.576;13.568;2023-03-08T08:17:36;4.30;1.00
9410;DHT22;4744;52.576;13.568;2023-03-08T08:20:04;4.40;1.00
9410;DHT22;4744;52.576;13.568;2023-03-08T08:22:34;4.30;1.00
9410;DHT22;4744;52.576;13.568;2023-03-08T08:25:04;4.20;1.00
9410;DHT22;4744;52.576;13.568;2023-03-08T08:27:31;4.00;1.00
9410;DHT22;4744;52.576;13.568;2023-03-08T08:29:58;3.90;1.00
9410;DHT22;4744;52.576;13.568;2023-03-08T08:32:25;3.90;1.00
9410;DHT22;4744;52.576;13.568;2023-03-08T08:34:52;3.90;1.00
9410;DHT22;4744;52.576;13.568;2023-03-08T08:37:19;4.00;1.00
9410;DHT22;4744;52.576;13.568;2023-03-08T08:39:46;4.10;1.00
9410;DHT22;4744;52.576;13.568;2023-03-08T08:42:14;4.20;1.00
9410;DHT22;4744;52.576;13.568;2023-03-08T08:44:41;4.30;1.00
9410;DHT22;4744;52.576;13.568;2023-03-08T08:47:08;4.30;1.00
9410;DHT22;4744;52.576;13.568;2023-03-08T08:49:35;4.50;1.00
9410;DHT22;4744;52.576;13.568;2023-03-08T08:52:02;4.70;1.00
9410;DHT22;4744;52.576;13.568;2023-03-08T08:54:29;4.60;1.00
9410;DHT22;4744;52.576;13.568;2023-03-08T08:56:58;4.40;1.00
9410;DHT22;4744;52.576;13.568;2023-03-08T08:59:26;4.30;1.00
9410;DHT22;4744;52.576;13.568;2023-03-08T09:01:53;4.10;1.00
9410;DHT22;4744;52.576;13.568;2023-03-08T09:04:20;4.00;1.00
9410;DHT22;4744;52.576;13.568;2023-03-08T09:06:47;3.90;1.00
9410;DHT22;4744;52.576;13.568;2023-03-08T09:09:14;3.80;1.00
9410;DHT22;4744;52.576;13.568;2023-03-08T09:11:41;4.00;1.00
9410;DHT22;4744;52.576;13.568;2023-03-08T09:14:08;4.20;1.00
9410;DHT22;4744;52.576;13.568;2023-03-08T09:16:37;4.60;1.00
9410;DHT22;4744;52.576;13.568;2023-03-08T09:19:04;5.30;1.00
9410;DHT22;4744;52.576;13.568;2023-03-08T09:21:32;6.20;1.00
9410;DHT22;4744;52.576;13.568;2023-03-08T09:24:01;6.90;1.00
9410;DHT22;4744;52.576;13.568;2023-03-08T09:26:29;7.20;1.00
9410;DHT22;4744;52.576;13.568;2023-03-08T09:28:57;7.70;1.00
9410;DHT22;4744;52.576;13.568;2023-03-08T09:31:30;7.70;1.00
9410;DHT22;4744;52.576;13.568;2023-03-08T09:33:58;7.30;1.00
9410;DHT22;4744;52.576;13.568;2023-03-08T09:36:25;7.10;1.00
9410;DHT22;4744;52.576;13.568;2023-03-08T09:38:54;7.20;1.00
9410;DHT22;4744;52.576;13.568;2023-03-08T09:44:48;7.20;1.00
9410;DHT22;4744;52.576;13.568;2023-03-08T09:47:27;7.10;1.00
9410;DHT22;4744;52.576;13.568;2023-03-08T09:50:05;6.90;1.00
9410;DHT22;4744;52.576;13.568;2023-03-08T09:52:37;6.70;1.00
9410;DHT22;4744;52.576;13.568;2023-03-08T09:55:10;6.40;1.00
9410;DHT22;4744;52.576;13.568;2023-03-08T09:57:43;6.20;1.00
9410;DHT22;4744;52.576;13.568;2023-03-08T10:00:18;6.00;1.00
9410;DHT22;4744;52.576;13.568;2023-03-08T10:02:53;5.90;1.00
9410;DHT22;4744;52.576;13.568;2023-03-08T10:05:26;5.80;1.00
9410;DHT22;4744;52.576;13.568;2023-03-08T10:08:01;5.60;1.00
9410;DHT22;4744;52.576;13.568;2023-03-08T10:10:39;5.60;1.00
9410;DHT22;4744;52.576;13.568;2023-03-08T10:13:23;5.60;1.00
9410;DHT22;4744;52.576;13.568;2023-03-08T10:16:00;5.60;1.00
9410;DHT22;4744;52.576;13.568;2023-03-08T10:18:33;5.60;1.00
9410;DHT22;4744;52.576;13.568;2023-03-08T10:21:03;5.60;1.00
9410;DHT22;4744;52.576;13.568;2023-03-08T10:23:31;5.60;1.00
9410;DHT22;4744;52.576;13.568;2023-03-08T10:25:59;5.80;1.00
9410;DHT22;4744;52.576;13.568;2023-03-08T10:28:26;5.90;1.00
9410;DHT22;4744;52.576;13.568;2023-03-08T10:30:55;5.80;1.00
9410;DHT22;4744;52.576;13.568;2023-03-08T10:33:25;5.80;1.00
9410;DHT22;4744;52.576;13.568;2023-03-08T10:35:55;5.70;1.00
9410;DHT22;4744;52.576;13.568;2023-03-08T10:38:26;5.60;1.00
9410;DHT22;4744;52.576;13.568;2023-03-08T10:41:02;5.60;1.00
9410;DHT22;4744;52.576;13.568;2023-03-08T10:43:31;5.60;1.00
9410;DHT22;4744;52.576;13.568;2023-03-08T10:46:00;5.70;1.00
9410;DHT22;4744;52.576;13.568;2023-03-08T10:48:28;5.70;1.00
9410;DHT22;4744;52.576;13.568;2023-03-08T10:50:59;5.60;1.00
9410;DHT22;4744;52.576;13.568;2023-03-08T10:53:28;5.60;1.00
9410;DHT22;4744;52.576;13.568;2023-03-08T10:55:57;5.60;1.00
9410;DHT22;4744;52.576;13.568;2023-03-08T10:58:35;5.60;1.00
9410;DHT22;4744;52.576;13.568;2023-03-08T11:01:04;5.50;1.00
9410;DHT22;4744;52.576;13.568;2023-03-08T11:03:32;5.50;1.00
9410;DHT22;4744;52.576;13.568;2023-03-08T11:06:01;5.40;1.00
9410;DHT22;4744;52.576;13.568;2023-03-08T11:08:32;5.40;1.00
9410;DHT22;4744;52.576;13.568;2023-03-08T11:11:06;5.40;1.00
9410;DHT22;4744;52.576;13.568;2023-03-08T11:13:35;5.30;1.00
9410;DHT22;4744;52.576;13.568;2023-03-08T11:19:03;5.40;1.00
9410;DHT22;4744;52.576;13.568;2023-03-08T11:21:39;5.50;1.00
9410;DHT22;4744;52.576;13.568;2023-03-08T11:24:30;5.50;1.00
9410;DHT22;4744;52.576;13.568;2023-03-08T11:27:10;5.60;1.00
9410;DHT22;4744;52.576;13.568;2023-03-08T11:29:47;5.50;1.00
9410;DHT22;4744;52.576;13.568;2023-03-08T11:32:25;5.30;1.00
9410;DHT22;4744;52.576;13.568;2023-03-08T11:35:06;5.20;1.00
9410;DHT22;4744;52.576;13.568;2023-03-08T11:37:39;5.10;1.00
9410;DHT22;4744;52.576;13.568;2023-03-08T11:40:20;5.10;1.00
9410;DHT22;4744;52.576;13.568;2023-03-08T11:42:55;5.10;1.00
9410;DHT22;4744;52.576;13.568;2023-03-08T11:45:31;5.10;1.00
9410;DHT22;4744;52.576;13.568;2023-03-08T11:51:09;5.20;1.00
9410;DHT22;4744;52.576;13.568;2023-03-08T11:53:49;5.30;1.00
9410;DHT22;4744;52.576;13.568;2023-03-08T11:56:43;5.30;1.00
9410;DHT22;4744;52.576;13.568;2023-03-08T11:59:27;5.20;1.00
9410;DHT22;4744;52.576;13.568;2023-03-08T12:01:59;5.10;1.00
9410;DHT22;4744;52.576;13.568;2023-03-08T12:04:32;5.10;1.00
9410;DHT22;4744;52.576;13.568;2023-03-08T12:07:05;5.10;1.00
9410;DHT22;4744;52.576;13.568;2023-03-08T12:09:38;5.20;1.00
9410;DHT22;4744;52.576;13.568;2023-03-08T12:12:12;5.20;1.00
9410;DHT22;4744;52.576;13.568;2023-03-08T12:14:45;5.10;1.00
9410;DHT22;4744;52.576;13.568;2023-03-08T12:17:19;5.00;1.00
9410;DHT22;4744;52.576;13.568;2023-03-08T12:19:47;5.00;1.00
9410;DHT22;4744;52.576;13.568;2023-03-08T12:22:41;5.10;1.00
9410;DHT22;4744;52.576;13.568;2023-03-08T12:25:17;5.10;1.00
9410;DHT22;4744;52.576;13.568;2023-03-08T12:27:52;5.00;1.00
9410;DHT22;4744;52.576;13.568;2023-03-08T12:30:27;5.00;1.00
9410;DHT22;4744;52.576;13.568;2023-03-08T12:33:01;5.00;1.00
9410;DHT22;4744;52.576;13.568;2023-03-08T12:35:30;5.00;1.00
9410;DHT22;4744;52.576;13.568;2023-03-08T12:37:59;5.10;1.00
9410;DHT22;4744;52.576;13.568;2023-03-08T12:40:29;5.00;1.00
9410;DHT22;4744;52.576;13.568;2023-03-08T12:43:08;5.10;1.00
9410;DHT22;4744;52.576;13.568;2023-03-08T12:45:36;5.20;1.00
9410;DHT22;4744;52.576;13.568;2023-03-08T12:48:22;5.20;1.00
9410;DHT22;4744;52.576;13.568;2023-03-08T12:50:57;5.10;1.00
9410;DHT22;4744;52.576;13.568;2023-03-08T12:53:29;5.10;1.00
9410;DHT22;4744;52.576;13.568;2023-03-08T12:58:51;5.00;1.00
9410;DHT22;4744;52.576;13.568;2023-03-08T13:01:37;4.90;1.00
9410;DHT22;4744;52.576;13.568;2023-03-08T13:04:22;5.00;1.00
9410;DHT22;4744;52.576;13.568;2023-03-08T13:07:13;5.00;1.00
9410;DHT22;4744;52.576;13.568;2023-03-08T13:09:46;4.90;1.00
9410;DHT22;4744;52.576;13.568;2023-03-08T13:12:26;4.90;1.00
9410;DHT22;4744;52.576;13.568;2023-03-08T13:15:17;4.90;1.00
9410;DHT22;4744;52.576;13.568;2023-03-08T13:17:59;5.00;1.00
9410;DHT22;4744;52.576;13.568;2023-03-08T13:20:43;4.90;1.00
9410;DHT22;4744;52.576;13.568;2023-03-08T13:23:23;4.80;1.00
9410;DHT22;4744;52.576;13.568;2023-03-08T13:26:04;4.70;1.00
9410;DHT22;4744;52.576;13.568;2023-03-08T13:28:34;4.60;1.00
9410;DHT22;4744;52.576;13.568;2023-03-08T13:31:09;4.60;1.00
9410;DHT22;4744;52.576;13.568;2023-03-08T13:33:40;4.50;1.00
9410;DHT22;4744;52.576;13.568;2023-03-08T13:36:16;4.60;1.00
9410;DHT22;4744;52.576;13.568;2023-03-08T13:38:43;4.60;1.00
9410;DHT22;4744;52.576;13.568;2023-03-08T13:41:10;4.60;1.00
9410;DHT22;4744;52.576;13.568;2023-03-08T13:43:37;4.50;1.00
9410;DHT22;4744;52.576;13.568;2023-03-08T13:46:11;4.60;1.00
9410;DHT22;4744;52.576;13.568;2023-03-08T13:48:42;4.50;1.00
9410;DHT22;4744;52.576;13.568;2023-03-08T13:51:15;4.40;1.00
9410;DHT22;4744;52.576;13.568;2023-03-08T13:53:43;4.40;1.00
9410;DHT22;4744;52.576;13.568;2023-03-08T13:56:20;4.40;1.00
9410;DHT22;4744;52.576;13.568;2023-03-08T13:58:48;4.40;1.00
9410;DHT22;4744;52.576;13.568;2023-03-08T14:01:19;4.30;1.00
9410;DHT22;4744;52.576;13.568;2023-03-08T14:03:48;4.30;1.00
9410;DHT22;4744;52.576;13.568;2023-03-08T14:06:18;4.30;1.00
9410;DHT22;4744;52.576;13.568;2023-03-08T14:08:47;4.10;1.00
9410;DHT22;4744;52.576;13.568;2023-03-08T14:11:16;4.10;1.00
9410;DHT22;4744;52.576;13.568;2023-03-08T14:13:46;4.10;1.00
9410;DHT22;4744;52.576;13.568;2023-03-08T14:16:28;4.00;1.00
9410;DHT22;4744;52.576;13.568;2023-03-08T14:18:56;3.80;1.00
9410;DHT22;4744;52.576;13.568;2023-03-08T14:21:25;3.80;1.00
9410;DHT22;4744;52.576;13.568;2023-03-08T14:23:54;3.80;1.00
9410;DHT22;4744;52.576;13.568;2023-03-08T14:26:27;3.70;1.00
9410;DHT22;4744;52.576;13.568;2023-03-08T14:29:11;3.70;1.00
9410;DHT22;4744;52.576;13.568;2023-03-08T14:34:36;3.60;1.00
9410;DHT22;4744;52.576;13.568;2023-03-08T14:37:06;3.60;1.00
9410;DHT22;4744;52.576;13.568;2023-03-08T14:39:41;3.60;1.00
9410;DHT22;4744;52.576;13.568;2023-03-08T14:42:18;3.50;1.00
9410;DHT22;4744;52.576;13.568;2023-03-08T14:44:51;3.50;1.00
9410;DHT22;4744;52.576;13.568;2023-03-08T14:47:22;3.40;1.00
9410;DHT22;4744;52.576;13.568;2023-03-08T14:49:59;3.30;1.00
9410;DHT22;4744;52.576;13.568;2023-03-08T14:52:27;3.20;1.00
9410;DHT22;4744;52.576;13.568;2023-03-08T14:54:54;3.20;1.00
9410;DHT22;4744;52.576;13.568;2023-03-08T14:57:22;3.20;1.00
9410;DHT22;4744;52.576;13.568;2023-03-08T14:59:50;3.10;1.00
9410;DHT22;4744;52.576;13.568;2023-03-08T15:02:19;3.10;1.00
9410;DHT22;4744;52.576;13.568;2023-03-08T15:04:46;3.10;1.00
9410;DHT22;4744;52.576;13.568;2023-03-08T15:07:17;3.20;1.00
9410;DHT22;4744;52.576;13.568;2023-03-08T15:09:45;3.10;1.00
9410;DHT22;4744;52.576;13.568;2023-03-08T15:12:12;3.20;1.00
9410;DHT22;4744;52.576;13.568;2023-03-08T15:14:39;3.10;1.00
9410;DHT22;4744;52.576;13.568;2023-03-08T15:17:06;3.10;1.00
9410;DHT22;4744;52.576;13.568;2023-03-08T15:19:34;3.10;1.00
9410;DHT22;4744;52.576;13.568;2023-03-08T15:22:02;3.10;1.00
9410;DHT22;4744;52.576;13.568;2023-03-08T15:24:29;3.10;1.00
9410;DHT22;4744;52.576;13.568;2023-03-08T15:26:56;3.00;1.00
9410;DHT22;4744;52.576;13.568;2023-03-08T15:29:25;3.10;1.00
9410;DHT22;4744;52.576;13.568;2023-03-08T15:31:53;3.10;1.00
9410;DHT22;4744;52.576;13.568;2023-03-08T15:34:20;3.10;1.00
9410;DHT22;4744;52.576;13.568;2023-03-08T15:36:49;3.10;1.00
9410;DHT22;4744;52.576;13.568;2023-03-08T15:39:16;3.10;1.00
9410;DHT22;4744;52.576;13.568;2023-03-08T15:41:43;3.00;1.00
9410;DHT22;4744;52.576;13.568;2023-03-08T15:44:10;3.00;1.00
9410;DHT22;4744;52.576;13.568;2023-03-08T15:46:37;3.00;1.00
9410;DHT22;4744;52.576;13.568;2023-03-08T15:49:05;3.00;1.00
9410;DHT22;4744;52.576;13.568;2023-03-08T15:51:34;3.00;1.00
9410;DHT22;4744;52.576;13.568;2023-03-08T15:54:05;2.90;1.00
9410;DHT22;4744;52.576;13.568;2023-03-08T15:56:32;2.90;1.00
9410;DHT22;4744;52.576;13.568;2023-03-08T15:58:59;2.90;1.00
9410;DHT22;4744;52.576;13.568;2023-03-08T16:01:26;2.90;1.00
9410;DHT22;4744;52.576;13.568;2023-03-08T16:03:55;2.80;1.00
9410;DHT22;4744;52.576;13.568;2023-03-08T16:06:22;2.80;1.00
9410;DHT22;4744;52.576;13.568;2023-03-08T16:08:49;2.70;1.00
9410;DHT22;4744;52.576;13.568;2023-03-08T16:11:18;2.70;1.00
9410;DHT22;4744;52.576;13.568;2023-03-08T16:13:48;2.70;1.00
9410;DHT22;4744;52.576;13.568;2023-03-08T16:16:15;2.60;1.00
9410;DHT22;4744;52.576;13.568;2023-03-08T16:18:42;2.60;1.00
9410;DHT22;4744;52.576;13.568;2023-03-08T16:21:10;2.60;1.00
9410;DHT22;4744;52.576;13.568;2023-03-08T16:23:38;2.50;1.00
9410;DHT22;4744;52.576;13.568;2023-03-08T16:26:07;2.50;1.00
9410;DHT22;4744;52.576;13.568;2023-03-08T16:28:36;2.60;1.00
9410;DHT22;4744;52.576;13.568;2023-03-08T16:31:03;2.50;1.00
9410;DHT22;4744;52.576;13.568;2023-03-08T16:33:30;2.50;1.00
9410;DHT22;4744;52.576;13.568;2023-03-08T16:36:08;2.40;1.00
9410;DHT22;4744;52.576;13.568;2023-03-08T16:38:51;2.40;1.00
9410;DHT22;4744;52.576;13.568;2023-03-08T16:41:32;2.40;1.00
9410;DHT22;4744;52.576;13.568;2023-03-08T16:44:01;2.30;1.00
9410;DHT22;4744;52.576;13.568;2023-03-08T16:46:28;2.30;1.00
9410;DHT22;4744;52.576;13.568;2023-03-08T16:48:55;2.20;1.00